Skip Navigation LinksHome page > Weather > Current weather Skip Navigation Links

Current Weather

Chicago O'Hare Intl, Chicago

For information only: do not use for flight planning or navigation.
Latest weather
Observation time Thursday, October 30, 2014 11:51 PM CDT
Local time Friday, October 31, 2014 12:24 AM CDT
Flight conditions Visual Meteorological Conditions
Winds
Wind direction West (270°)
Wind speed 7 mph
Visibility 10 mi.
Sky condition
Ceiling 11,000 ft. overcast
Cloud layer few clouds 5,000 ft.
Cloud layer overcast 11,000 ft.
Temperature 46°F
Dewpoint 36°F
Altimeter 30.03 in.Hg
Derived measurements
Relative humidity 68%
Wind chill 42°F
Density altitude -215 ft.
Sea-level pressure 30.04 in.Hg
Remarks
Automated weather observing station with precipitation discriminator.
METAR KORD 310451Z 27006KT 10SM FEW050 OVC110 08/02 A3003 RMK AO2 SLP171 T00780022

Settings

Location code

InnerDrive.Weather 4.0.5399.0 Release CLR 4.0.30319.34014
Copyright ©2014 Inner Drive Technology. All rights reserved. Portions Copyright ©1986-2014 David Braverman.

Find weather

Site navigation


Skip Navigation Links

Place info

Page info

PayPal - The safer, easier way to pay online!

Return home.

Copyright ©2014 Inner Drive Technology. Purveyors of fine, hand-crafted computer software. Page printed 2014-10-31T05:24:10 UTC.